Time;durP1;ratioP1;P1;durP2;ratioP2;P2;SDS_P1;SDS_P2;PMS_P1;PMS_P2;Temp;Humidity;BMP_temperature;BMP_pressure;BME280_temperature;BME280_humidity;BME280_pressure;Samples;Min_cycle;Max_cycle;Signal;HPM_P1;HPM_P2
2023/03/21 00:01:03;;;;;;;33.87;18.33;;;13.30;74.00;;;;;;6061699;23;20203;-77
2023/03/21 00:03:35;;;;;;;37.17;18.00;;;13.30;74.10;;;;;;6061188;23;20179;-78
2023/03/21 00:06:07;;;;;;;39.47;17.30;;;13.20;74.30;;;;;;6064296;23;20573;-79
2023/03/21 00:08:35;;;;;;;35.00;17.97;;;13.20;74.00;;;;;;6059877;23;20247;-78
2023/03/21 00:11:06;;;;;;;37.67;17.60;;;13.20;74.00;;;;;;6064753;23;20174;-78
2023/03/21 00:13:37;;;;;;;36.87;16.73;;;13.20;74.10;;;;;;6062235;23;20457;-78
2023/03/21 00:16:08;;;;;;;33.93;17.07;;;13.20;74.10;;;;;;6063938;23;20230;-77
2023/03/21 00:18:54;;;;;;;37.03;18.50;;;13.20;74.10;;;;;;6065387;23;20222;-78
2023/03/21 00:21:27;;;;;;;35.87;18.13;;;13.20;74.10;;;;;;6064512;23;20182;-78
2023/03/21 00:24:15;;;;;;;34.10;17.97;;;13.20;74.00;;;;;;6065217;23;20188;-78
2023/03/21 00:26:44;;;;;;;33.57;16.83;;;13.20;74.30;;;;;;6065471;23;20808;-78
2023/03/21 00:29:13;;;;;;;33.53;18.27;;;13.20;74.20;;;;;;6064707;23;20544;-77
2023/03/21 00:31:41;;;;;;;35.70;16.97;;;13.20;75.20;;;;;;6064987;23;20620;-78
2023/03/21 00:34:11;;;;;;;32.47;17.20;;;13.20;74.30;;;;;;6065205;23;20178;-78
2023/03/21 00:36:44;;;;;;;33.47;17.87;;;13.20;74.40;;;;;;6063916;23;20162;-77
2023/03/21 00:39:13;;;;;;;32.07;16.70;;;13.20;74.40;;;;;;6062950;23;20181;-78
2023/03/21 00:41:41;;;;;;;35.93;17.93;;;13.20;74.50;;;;;;6062943;23;20788;-78
2023/03/21 00:44:14;;;;;;;33.63;17.83;;;13.10;75.80;;;;;;6064463;23;20174;-77
2023/03/21 00:46:43;;;;;;;33.37;17.63;;;13.10;75.50;;;;;;6065497;23;20246;-78
2023/03/21 00:49:32;;;;;;;39.40;18.00;;;13.10;75.90;;;;;;6064675;23;20170;-78
2023/03/21 00:52:01;;;;;;;40.47;17.97;;;13.10;75.70;;;;;;6068061;23;20159;-77
2023/03/21 00:54:45;;;;;;;35.13;18.47;;;13.00;75.70;;;;;;6070260;23;20201;-78
2023/03/21 00:57:14;;;;;;;37.77;18.50;;;13.00;75.70;;;;;;6065528;23;20206;-78
2023/03/21 00:59:43;;;;;;;36.37;18.53;;;13.00;75.70;;;;;;6063265;23;20648;-78
2023/03/21 01:02:13;;;;;;;33.33;17.43;;;12.90;75.80;;;;;;6065731;23;20182;-78
2023/03/21 01:04:43;;;;;;;33.13;17.73;;;12.90;75.80;;;;;;6065979;23;20162;-78
2023/03/21 01:07:12;;;;;;;44.53;17.77;;;13.00;75.90;;;;;;6065466;23;20174;-78
2023/03/21 01:09:40;;;;;;;39.23;18.03;;;12.90;76.80;;;;;;6063399;23;20214;-78
2023/03/21 01:12:09;;;;;;;34.13;17.77;;;12.90;76.90;;;;;;6064648;23;20553;-77
2023/03/21 01:14:37;;;;;;;41.57;18.67;;;12.80;76.90;;;;;;6062786;23;20178;-78
2023/03/21 01:17:06;;;;;;;38.07;17.80;;;12.90;76.90;;;;;;6064141;23;20194;-77
2023/03/21 01:19:34;;;;;;;30.47;17.10;;;12.80;77.40;;;;;;6063450;23;20230;-78
2023/03/21 01:22:20;;;;;;;37.70;17.67;;;12.80;77.10;;;;;;6064937;23;20732;-78
2023/03/21 01:24:48;;;;;;;31.57;16.90;;;12.80;77.20;;;;;;6065091;23;20237;-76
2023/03/21 01:27:25;;;;;;;39.83;19.83;;;12.70;77.20;;;;;;6066308;23;20162;-78
2023/03/21 01:29:54;;;;;;;32.73;17.53;;;12.70;77.90;;;;;;6067046;23;20683;-78
2023/03/21 01:32:22;;;;;;;37.10;15.53;;;12.70;77.70;;;;;;6066329;23;20171;-78
2023/03/21 01:34:50;;;;;;;33.00;18.00;;;12.60;78.10;;;;;;6066907;23;20551;-78
2023/03/21 01:37:20;;;;;;;32.23;17.17;;;12.60;77.90;;;;;;6066627;23;20230;-77
2023/03/21 01:39:48;;;;;;;35.00;17.83;;;12.60;78.00;;;;;;6066526;23;20183;-78
2023/03/21 01:42:17;;;;;;;39.40;18.77;;;12.60;77.70;;;;;;6065704;23;20250;-78
2023/03/21 01:44:54;;;;;;;40.93;18.20;;;12.50;77.80;;;;;;6064288;23;20175;-76
2023/03/21 01:47:22;;;;;;;40.50;18.13;;;12.50;78.00;;;;;;6065388;23;20481;-79
2023/03/21 01:49:53;;;;;;;37.17;17.90;;;12.50;78.10;;;;;;6065570;23;20580;-77
2023/03/21 01:52:26;;;;;;;40.63;18.07;;;12.40;78.60;;;;;;6064882;23;20175;-77
2023/03/21 01:55:13;;;;;;;37.40;18.90;;;12.40;78.90;;;;;;6065849;23;20163;-78
2023/03/21 01:57:46;;;;;;;39.23;19.07;;;12.30;79.90;;;;;;6065835;23;20257;-77
2023/03/21 02:00:33;;;;;;;33.97;17.00;;;12.30;79.80;;;;;;6065793;23;20883;-78
2023/03/21 02:03:07;;;;;;;35.33;17.23;;;12.30;79.80;;;;;;6065982;23;20175;-77
2023/03/21 02:05:52;;;;;;;32.23;16.73;;;12.30;79.40;;;;;;6066169;23;20163;-77
2023/03/21 02:08:22;;;;;;;33.10;16.70;;;12.30;79.60;;;;;;6066317;23;20783;-77
2023/03/21 02:11:06;;;;;;;33.00;16.23;;;12.30;80.10;;;;;;6066422;23;20154;-76
2023/03/21 02:13:35;;;;;;;32.73;15.67;;;12.20;80.60;;;;;;6065213;23;20230;-76
2023/03/21 02:16:12;;;;;;;31.37;15.87;;;12.20;80.50;;;;;;6065539;23;20185;-77
2023/03/21 02:18:49;;;;;;;29.33;16.00;;;12.20;80.60;;;;;;6065330;23;20194;-77
2023/03/21 02:21:50;;;;;;;32.90;15.57;;;12.20;81.00;;;;;;6066220;23;20237;-77
2023/03/21 02:24:50;;;;;;;40.10;17.57;;;12.20;81.80;;;;;;6064121;23;20210;-77
2023/03/21 02:27:32;;;;;;;40.65;18.88;;;12.10;82.20;;;;;;6063760;23;20396;-77
2023/03/21 02:30:54;;;;;;;37.80;17.10;;;12.10;82.60;;;;;;6066093;23;20162;-78
2023/03/21 02:33:58;;;;;;;33.30;16.70;;;12.00;82.90;;;;;;6066350;23;20485;-77
2023/03/21 02:36:35;;;;;;;33.30;15.90;;;12.10;82.60;;;;;;6065491;23;20163;-79
2023/03/21 02:39:12;;;;;;;32.70;14.57;;;12.10;82.30;;;;;;6066009;23;20166;-78
2023/03/21 02:41:47;;;;;;;36.77;16.57;;;12.10;82.20;;;;;;6064054;23;20186;-78
2023/03/21 02:44:23;;;;;;;32.30;17.77;;;12.00;82.90;;;;;;6065939;23;20221;-78
2023/03/21 02:46:55;;;;;;;30.93;15.83;;;12.00;82.60;;;;;;6066130;23;20162;-77
2023/03/21 02:49:39;;;;;;;32.83;16.03;;;12.00;82.70;;;;;;6065592;23;20237;-78
2023/03/21 02:52:11;;;;;;;31.97;17.07;;;12.00;82.50;;;;;;6066914;23;20191;-78
2023/03/21 02:54:53;;;;;;;37.23;17.03;;;12.00;82.50;;;;;;6067502;23;20158;-78
2023/03/21 02:57:21;;;;;;;32.23;15.90;;;11.90;82.60;;;;;;6066070;23;20254;-78
2023/03/21 02:59:56;;;;;;;33.87;16.73;;;11.90;82.90;;;;;;6067039;23;20222;-78
2023/03/21 03:02:35;;;;;;;40.67;16.70;;;11.90;83.10;;;;;;6066365;23;20636;-80
2023/03/21 03:05:13;;;;;;;38.03;17.17;;;11.90;82.60;;;;;;6065087;23;20526;-77
2023/03/21 03:08:02;;;;;;;36.13;17.27;;;11.80;82.60;;;;;;6065676;23;20213;-77
2023/03/21 03:10:47;;;;;;;31.10;15.33;;;11.80;83.90;;;;;;6066391;23;20158;-77
2023/03/21 03:13:26;;;;;;;34.40;16.80;;;11.80;83.70;;;;;;6064290;23;20230;-78
2023/03/21 03:16:08;;;;;;;36.97;16.40;;;11.80;83.60;;;;;;6060986;23;20250;-78
2023/03/21 03:18:48;;;;;;;30.27;16.03;;;11.70;83.60;;;;;;6064443;23;20166;-79
2023/03/21 03:21:21;;;;;;;33.17;16.37;;;11.60;84.60;;;;;;6061396;23;20163;-78
2023/03/21 03:23:52;;;;;;;35.90;16.50;;;11.60;84.70;;;;;;6065928;23;20214;-78
2023/03/21 03:26:26;;;;;;;34.27;16.50;;;11.60;84.50;;;;;;6065622;23;20210;-78
2023/03/21 03:28:58;;;;;;;37.00;16.47;;;11.60;84.80;;;;;;6065476;23;20163;-79
2023/03/21 03:31:31;;;;;;;32.30;15.53;;;11.60;85.10;;;;;;6064113;23;20163;-79
2023/03/21 03:34:05;;;;;;;35.37;15.97;;;11.50;85.30;;;;;;6065473;23;20162;-78
2023/03/21 03:36:39;;;;;;;38.93;17.93;;;11.50;85.30;;;;;;6065048;23;20214;-78
2023/03/21 03:39:10;;;;;;;36.03;15.77;;;11.50;85.50;;;;;;6065402;23;20159;-78
2023/03/21 03:41:44;;;;;;;34.77;15.97;;;11.50;85.90;;;;;;6065559;23;20700;-78
2023/03/21 03:44:33;;;;;;;35.73;17.00;;;11.50;86.20;;;;;;6065430;23;20218;-78
2023/03/21 03:47:05;;;;;;;37.50;14.63;;;11.50;85.80;;;;;;6064493;23;20258;-77
2023/03/21 03:49:38;;;;;;;36.77;15.83;;;11.40;86.20;;;;;;6062667;23;20657;-79
2023/03/21 03:52:11;;;;;;;34.93;15.63;;;11.40;86.30;;;;;;6065069;23;20214;-79
2023/03/21 03:54:43;;;;;;;30.43;15.10;;;11.50;86.00;;;;;;6064929;23;20166;-78
2023/03/21 03:57:14;;;;;;;31.97;15.53;;;11.50;85.80;;;;;;6063080;23;20265;-78
2023/03/21 03:59:45;;;;;;;34.57;15.47;;;11.40;86.20;;;;;;6065084;23;20222;-78
2023/03/21 04:02:14;;;;;;;39.23;15.43;;;11.50;86.30;;;;;;6066159;23;20210;-78
2023/03/21 04:04:42;;;;;;;37.43;16.60;;;11.50;86.20;;;;;;6064768;23;20178;-78
2023/03/21 04:07:10;;;;;;;40.70;15.77;;;11.50;86.30;;;;;;6064394;23;20175;-78
2023/03/21 04:09:39;;;;;;;33.57;15.23;;;11.50;86.80;;;;;;6063434;23;20178;-78
2023/03/21 04:12:14;;;;;;;37.40;15.37;;;11.50;86.40;;;;;;6064578;23;20154;-79
2023/03/21 04:14:42;;;;;;;34.37;15.00;;;11.50;87.00;;;;;;6064674;23;20190;-78
2023/03/21 04:17:14;;;;;;;32.40;16.40;;;11.50;86.80;;;;;;6063860;23;20165;-78
2023/03/21 04:19:44;;;;;;;38.40;16.47;;;11.40;87.30;;;;;;6062945;23;20182;-78
2023/03/21 04:22:13;;;;;;;38.53;16.83;;;11.40;86.90;;;;;;6065591;23;20191;-78
2023/03/21 04:24:41;;;;;;;34.93;16.03;;;11.40;86.90;;;;;;6063457;23;20633;-78
2023/03/21 04:27:10;;;;;;;33.00;16.73;;;11.50;86.90;;;;;;6065266;23;20178;-78
2023/03/21 04:29:40;;;;;;;31.50;15.23;;;11.50;87.00;;;;;;6064300;23;20179;-78
2023/03/21 04:32:15;;;;;;;33.37;16.07;;;11.50;86.70;;;;;;6064337;23;20237;-79
2023/03/21 04:34:48;;;;;;;33.00;15.40;;;11.50;86.50;;;;;;6064283;23;20162;-78
2023/03/21 04:37:18;;;;;;;40.00;15.93;;;11.60;86.50;;;;;;6062339;23;20163;-78
2023/03/21 04:39:46;;;;;;;44.63;17.40;;;11.60;86.70;;;;;;6062650;23;20175;-77
2023/03/21 04:42:17;;;;;;;33.43;16.67;;;11.50;86.60;;;;;;6061068;23;20194;-77
2023/03/21 04:44:47;;;;;;;39.67;16.63;;;11.50;86.80;;;;;;6064728;23;20238;-78
2023/03/21 04:47:19;;;;;;;37.13;16.97;;;11.50;86.90;;;;;;6065136;23;20163;-78
2023/03/21 04:49:47;;;;;;;36.50;16.47;;;11.60;86.70;;;;;;6064848;23;20179;-78
2023/03/21 04:52:16;;;;;;;33.17;15.73;;;11.50;87.50;;;;;;6065074;23;20174;-78
2023/03/21 04:54:45;;;;;;;33.43;16.27;;;11.50;88.00;;;;;;6063984;23;20261;-78
2023/03/21 04:57:13;;;;;;;40.07;17.67;;;11.50;88.00;;;;;;6065520;23;20604;-78
2023/03/21 04:59:42;;;;;;;31.03;15.03;;;11.60;87.60;;;;;;6067562;23;20242;-79
2023/03/21 05:02:12;;;;;;;35.87;15.73;;;11.60;87.40;;;;;;6066019;23;20179;-78
2023/03/21 05:04:40;;;;;;;30.93;14.53;;;11.60;87.80;;;;;;6066817;23;20182;-79
2023/03/21 05:07:08;;;;;;;30.20;15.53;;;11.70;87.30;;;;;;6064109;23;20771;-78
2023/03/21 05:09:37;;;;;;;37.93;16.50;;;11.80;87.00;;;;;;6066134;23;20210;-77
2023/03/21 05:12:05;;;;;;;32.07;14.83;;;11.80;86.70;;;;;;6065917;23;20178;-78
2023/03/21 05:14:34;;;;;;;33.57;14.50;;;11.90;87.50;;;;;;6067261;23;20456;-78
2023/03/21 05:17:03;;;;;;;39.00;15.17;;;11.90;86.80;;;;;;6065027;23;20641;-77
2023/03/21 05:19:39;;;;;;;29.30;14.07;;;12.00;86.80;;;;;;6066007;23;20178;-78
2023/03/21 05:22:10;;;;;;;25.97;13.10;;;12.00;86.60;;;;;;6064709;23;20169;-77
2023/03/21 05:24:40;;;;;;;27.53;13.67;;;12.10;86.40;;;;;;6069493;23;20163;-78
2023/03/21 05:27:09;;;;;;;24.97;12.93;;;12.10;86.40;;;;;;6066785;23;20217;-79
2023/03/21 05:29:37;;;;;;;24.67;12.93;;;12.20;86.20;;;;;;6067713;23;20510;-79
2023/03/21 05:32:06;;;;;;;28.53;13.73;;;12.20;86.00;;;;;;6065867;23;20186;-78
2023/03/21 05:34:35;;;;;;;24.83;12.47;;;12.30;86.00;;;;;;6068673;23;20182;-79
2023/03/21 05:37:04;;;;;;;34.30;13.37;;;12.30;86.70;;;;;;6067755;23;20187;-79
2023/03/21 05:39:32;;;;;;;29.33;13.20;;;12.40;85.70;;;;;;6067524;23;20179;-78
2023/03/21 05:42:00;;;;;;;26.43;13.20;;;12.50;85.60;;;;;;6067467;23;20229;-78
2023/03/21 05:44:29;;;;;;;29.00;13.17;;;12.50;85.40;;;;;;6068521;23;20194;-78
2023/03/21 05:46:57;;;;;;;35.87;12.67;;;12.60;85.30;;;;;;6069234;23;20175;-77
2023/03/21 05:49:25;;;;;;;28.67;13.10;;;12.70;85.20;;;;;;6067653;23;20237;-78
2023/03/21 05:51:55;;;;;;;29.57;15.13;;;12.70;85.30;;;;;;6064009;23;20258;-78
2023/03/21 05:54:24;;;;;;;33.87;15.33;;;12.70;85.30;;;;;;6069010;23;20226;-78
2023/03/21 05:56:52;;;;;;;31.57;15.10;;;12.70;85.20;;;;;;6064804;23;20202;-78
2023/03/21 05:59:20;;;;;;;31.80;14.97;;;12.70;85.00;;;;;;6065712;23;20179;-78
2023/03/21 06:01:49;;;;;;;29.47;13.33;;;12.70;85.00;;;;;;6066331;23;20234;-78
2023/03/21 06:04:17;;;;;;;30.77;14.77;;;12.80;84.80;;;;;;6067204;23;20199;-78
2023/03/21 06:06:46;;;;;;;29.30;14.43;;;12.80;84.70;;;;;;6066316;23;20262;-78
2023/03/21 06:09:15;;;;;;;31.63;14.00;;;12.80;84.50;;;;;;6067497;23;20214;-79
2023/03/21 06:11:50;;;;;;;35.60;14.70;;;12.90;84.40;;;;;;6067957;23;20193;-78
2023/03/21 06:14:19;;;;;;;25.17;13.37;;;12.90;84.30;;;;;;6065552;23;20194;-78
2023/03/21 06:16:48;;;;;;;32.27;12.90;;;12.90;84.30;;;;;;6066438;23;20179;-78
2023/03/21 06:19:16;;;;;;;36.10;13.20;;;12.90;84.20;;;;;;6066152;23;20174;-78
2023/03/21 06:21:45;;;;;;;28.10;13.80;;;12.90;84.10;;;;;;6066246;23;20186;-78
2023/03/21 06:24:14;;;;;;;31.23;12.67;;;12.90;84.00;;;;;;6066670;23;20201;-79
2023/03/21 06:26:43;;;;;;;27.03;11.97;;;13.00;84.10;;;;;;6066694;23;20624;-78
2023/03/21 06:29:11;;;;;;;29.03;12.93;;;13.10;84.00;;;;;;6067286;23;20182;-78
2023/03/21 06:31:40;;;;;;;26.77;11.60;;;13.10;84.00;;;;;;6066542;23;20182;-79
2023/03/21 06:34:09;;;;;;;34.33;13.10;;;13.00;84.00;;;;;;6065635;23;20696;-78
2023/03/21 06:36:38;;;;;;;23.33;11.50;;;13.20;83.90;;;;;;6065760;23;20182;-78
2023/03/21 06:39:07;;;;;;;30.90;12.63;;;13.20;83.70;;;;;;6066715;23;20178;-79
2023/03/21 06:41:37;;;;;;;27.03;12.97;;;13.30;83.60;;;;;;6066957;23;20178;-78
2023/03/21 06:44:05;;;;;;;25.40;12.00;;;13.40;83.60;;;;;;6067331;23;20198;-78
2023/03/21 06:46:34;;;;;;;32.03;12.97;;;13.50;83.40;;;;;;6067513;23;20179;-78
2023/03/21 06:49:02;;;;;;;25.40;11.93;;;13.50;83.30;;;;;;6065929;23;20395;-78
2023/03/21 06:51:30;;;;;;;31.67;12.93;;;13.60;83.00;;;;;;6065436;23;20516;-78
2023/03/21 06:53:59;;;;;;;25.03;12.73;;;13.60;82.90;;;;;;6065216;23;20529;-78
2023/03/21 06:56:51;;;;;;;26.23;11.67;;;13.50;83.00;;;;;;6060948;23;20179;-76
2023/03/21 06:59:21;;;;;;;25.77;12.47;;;13.50;82.70;;;;;;6057635;23;20186;-78
2023/03/21 07:01:49;;;;;;;24.03;11.97;;;13.40;82.70;;;;;;6063720;23;20178;-77
2023/03/21 07:04:18;;;;;;;29.30;12.30;;;13.50;82.70;;;;;;6062445;23;20246;-78
2023/03/21 07:06:46;;;;;;;30.03;12.70;;;13.50;82.60;;;;;;6065372;23;20257;-78
2023/03/21 07:09:16;;;;;;;29.53;12.27;;;13.60;82.70;;;;;;6064006;23;20178;-78
2023/03/21 07:11:45;;;;;;;25.90;12.23;;;13.50;82.60;;;;;;6063156;23;20166;-75
2023/03/21 07:14:13;;;;;;;32.83;12.47;;;13.50;82.50;;;;;;6064463;23;20540;-78
2023/03/21 07:16:43;;;;;;;31.57;12.73;;;13.60;82.40;;;;;;6064539;23;20229;-77
2023/03/21 07:19:11;;;;;;;28.73;13.27;;;13.60;82.50;;;;;;6058969;23;20265;-76
2023/03/21 07:21:39;;;;;;;27.27;12.60;;;13.70;82.50;;;;;;6062690;23;20515;-78
2023/03/21 07:24:08;;;;;;;24.30;12.40;;;13.80;82.50;;;;;;6063055;23;20178;-78
2023/03/21 07:26:36;;;;;;;29.20;12.50;;;13.80;82.20;;;;;;6065298;23;20253;-77
2023/03/21 07:29:05;;;;;;;27.90;13.13;;;13.80;81.90;;;;;;6064414;23;20326;-76
2023/03/21 07:31:34;;;;;;;26.73;12.93;;;13.80;81.90;;;;;;6064873;23;20183;-78
2023/03/21 07:34:04;;;;;;;28.17;11.60;;;13.90;81.90;;;;;;6064358;23;20174;-77
2023/03/21 07:36:33;;;;;;;34.13;13.63;;;14.00;81.90;;;;;;6064739;23;20158;-77
2023/03/21 07:39:01;;;;;;;25.93;13.40;;;14.00;82.40;;;;;;6064033;23;20873;-78
2023/03/21 07:41:29;;;;;;;28.47;13.73;;;14.00;81.20;;;;;;6065367;23;20233;-78
2023/03/21 07:43:58;;;;;;;31.07;12.53;;;14.10;81.10;;;;;;6065427;23;20214;-75
2023/03/21 07:46:26;;;;;;;30.23;12.90;;;14.10;81.10;;;;;;6065924;23;20174;-78
2023/03/21 07:48:55;;;;;;;29.40;12.40;;;14.10;81.10;;;;;;6064123;23;20509;-78
2023/03/21 07:51:24;;;;;;;29.57;12.90;;;14.20;81.00;;;;;;6066348;23;20179;-77
2023/03/21 07:53:53;;;;;;;23.90;12.03;;;14.30;81.10;;;;;;6066103;23;20174;-78
2023/03/21 07:56:21;;;;;;;29.57;13.27;;;14.30;81.20;;;;;;6065508;23;20182;-77
2023/03/21 07:58:49;;;;;;;28.93;13.37;;;14.40;80.90;;;;;;6064196;23;20181;-76
2023/03/21 08:01:18;;;;;;;26.33;12.47;;;14.50;80.90;;;;;;6064459;23;20178;-77
2023/03/21 08:03:46;;;;;;;22.73;12.10;;;14.50;80.70;;;;;;6065133;23;20182;-78
2023/03/21 08:06:15;;;;;;;28.43;13.70;;;14.60;80.70;;;;;;6065424;23;20178;-78
2023/03/21 08:08:45;;;;;;;33.20;13.47;;;14.60;80.30;;;;;;6065552;23;20522;-77
2023/03/21 08:11:13;;;;;;;31.10;13.20;;;14.70;80.30;;;;;;6065037;23;20178;-77
2023/03/21 08:13:42;;;;;;;25.90;12.43;;;14.70;80.20;;;;;;6063087;23;20193;-77
2023/03/21 08:16:10;;;;;;;25.87;13.00;;;14.80;80.00;;;;;;6066452;23;20178;-77
2023/03/21 08:18:38;;;;;;;27.57;12.80;;;14.80;79.90;;;;;;6065150;23;20178;-77
2023/03/21 08:21:07;;;;;;;27.63;12.23;;;14.90;79.90;;;;;;6066047;23;20179;-78
2023/03/21 08:23:36;;;;;;;28.23;12.27;;;15.00;79.90;;;;;;6064067;23;20523;-76
2023/03/21 08:26:08;;;;;;;21.40;10.93;;;15.00;79.80;;;;;;6066160;23;20266;-78
2023/03/21 08:28:38;;;;;;;24.50;11.47;;;15.20;79.80;;;;;;6065715;23;20235;-77
2023/03/21 08:31:08;;;;;;;27.03;11.40;;;15.30;79.80;;;;;;6064403;23;20246;-77
2023/03/21 08:33:37;;;;;;;26.17;12.73;;;15.40;79.20;;;;;;6064366;23;20162;-76
2023/03/21 08:36:07;;;;;;;24.70;10.77;;;15.50;79.20;;;;;;6064706;23;20174;-77
2023/03/21 08:38:36;;;;;;;23.73;10.97;;;15.50;78.50;;;;;;6064399;23;20443;-76
2023/03/21 08:41:06;;;;;;;23.43;9.93;;;15.70;78.60;;;;;;6065006;23;20689;-78
2023/03/21 08:43:34;;;;;;;23.83;11.23;;;15.80;78.50;;;;;;6065458;23;20249;-77
2023/03/21 08:46:03;;;;;;;25.03;10.37;;;15.90;77.90;;;;;;6064797;23;20198;-78
2023/03/21 08:48:37;;;;;;;21.40;10.77;;;16.10;77.90;;;;;;6064196;23;20185;-78
2023/03/21 08:51:06;;;;;;;28.47;10.50;;;16.20;77.50;;;;;;6066356;23;20229;-78
2023/03/21 08:53:34;;;;;;;20.23;10.57;;;16.30;77.40;;;;;;6065096;23;20237;-77
2023/03/21 08:56:03;;;;;;;24.00;10.57;;;16.50;76.90;;;;;;6065202;23;20249;-77
2023/03/21 08:58:32;;;;;;;21.07;10.50;;;16.60;76.00;;;;;;6064229;23;20230;-78
2023/03/21 09:01:01;;;;;;;28.20;10.97;;;16.70;75.90;;;;;;6070732;23;20174;-78
2023/03/21 09:03:29;;;;;;;18.97;10.83;;;16.70;75.30;;;;;;6066750;23;20179;-76
2023/03/21 09:05:58;;;;;;;20.67;11.10;;;16.80;75.20;;;;;;6064958;23;20257;-77
2023/03/21 09:08:26;;;;;;;20.77;10.43;;;17.00;75.00;;;;;;6064209;23;20624;-78
2023/03/21 09:10:55;;;;;;;25.53;11.83;;;17.00;74.70;;;;;;6065550;23;20241;-78
2023/03/21 09:13:24;;;;;;;23.93;11.87;;;17.20;74.70;;;;;;6064989;23;20182;-76
2023/03/21 09:15:56;;;;;;;28.50;10.80;;;17.30;74.80;;;;;;6065704;23;20175;-76
2023/03/21 09:18:44;;;;;;;24.13;9.83;;;17.40;74.30;;;;;;6065000;23;20495;-76
2023/03/21 09:21:13;;;;;;;21.50;10.43;;;17.50;74.10;;;;;;6064407;23;20197;-78
2023/03/21 09:23:43;;;;;;;19.43;9.43;;;17.70;73.60;;;;;;6064995;23;20175;-77
2023/03/21 09:26:12;;;;;;;25.87;10.80;;;17.70;73.00;;;;;;6064849;23;20234;-78
2023/03/21 09:28:41;;;;;;;19.27;10.57;;;17.80;72.60;;;;;;6064964;23;20178;-76
2023/03/21 09:31:15;;;;;;;22.57;11.37;;;17.90;72.50;;;;;;6063589;23;20178;-77
2023/03/21 09:33:43;;;;;;;19.83;10.80;;;17.90;70.80;;;;;;6063351;23;20170;-78
2023/03/21 09:36:13;;;;;;;21.20;11.67;;;17.90;70.40;;;;;;6064501;23;20178;-77
2023/03/21 09:38:43;;;;;;;20.63;11.07;;;17.90;70.70;;;;;;6065183;23;20174;-75
2023/03/21 09:41:23;;;;;;;22.97;11.93;;;17.90;70.50;;;;;;6066375;23;20163;-75
2023/03/21 09:44:07;;;;;;;24.63;11.30;;;18.00;70.60;;;;;;6064903;23;20162;-75
2023/03/21 09:46:44;;;;;;;25.73;11.10;;;18.10;71.00;;;;;;6065141;23;20182;-75
2023/03/21 09:49:19;;;;;;;23.53;10.73;;;18.20;70.90;;;;;;6065593;23;20643;-75
2023/03/21 09:51:51;;;;;;;22.73;10.83;;;18.20;70.40;;;;;;6065557;23;20162;-76
2023/03/21 09:54:26;;;;;;;18.93;9.70;;;18.30;69.80;;;;;;6067676;23;20237;-74
2023/03/21 09:57:03;;;;;;;17.23;9.53;;;18.40;69.90;;;;;;6065488;23;20276;-75
2023/03/21 09:59:42;;;;;;;19.50;9.73;;;18.50;69.80;;;;;;6065758;23;20169;-77
2023/03/21 10:02:31;;;;;;;23.40;10.90;;;18.60;69.30;;;;;;6065466;23;20597;-77
2023/03/21 10:04:59;;;;;;;19.33;10.57;;;18.70;68.20;;;;;;6064613;23;20183;-76
2023/03/21 10:07:30;;;;;;;19.87;12.33;;;18.80;68.80;;;;;;6064083;23;20200;-75
2023/03/21 10:10:00;;;;;;;16.93;10.23;;;18.90;68.60;;;;;;6065391;23;20531;-76
2023/03/21 10:12:30;;;;;;;17.03;9.67;;;19.10;68.50;;;;;;6064307;23;20629;-77
2023/03/21 10:15:00;;;;;;;17.00;9.87;;;19.10;68.50;;;;;;6065769;23;20508;-76
2023/03/21 10:17:33;;;;;;;21.33;10.37;;;19.30;67.60;;;;;;6063157;23;20162;-77
2023/03/21 10:20:12;;;;;;;15.57;9.77;;;19.40;67.30;;;;;;6065488;23;20185;-76
2023/03/21 10:22:40;;;;;;;18.70;10.23;;;19.50;67.20;;;;;;6065227;23;20170;-77
2023/03/21 10:25:15;;;;;;;18.23;10.37;;;19.50;66.90;;;;;;6062391;23;20198;-77
2023/03/21 10:27:44;;;;;;;19.00;9.53;;;19.60;65.10;;;;;;6065437;23;20162;-78
2023/03/21 10:30:28;;;;;;;21.60;10.27;;;19.60;65.90;;;;;;6066126;23;20230;-77
2023/03/21 10:33:03;;;;;;;20.47;10.73;;;19.70;66.20;;;;;;6065543;23;20158;-78
2023/03/21 10:35:35;;;;;;;20.73;9.70;;;19.80;65.80;;;;;;6064078;23;20166;-77
2023/03/21 10:38:05;;;;;;;20.07;10.30;;;19.90;65.80;;;;;;6065695;23;20163;-78
2023/03/21 10:40:34;;;;;;;45.65;20.60;;;19.90;65.30;;;;;;6066650;23;20182;-78
2023/03/21 10:43:21;;;;;;;39.03;18.60;;;20.00;65.30;;;;;;6066529;23;20179;-78
2023/03/21 10:45:51;;;;;;;21.65;11.98;;;20.00;64.10;;;;;;6066064;23;20260;-77
2023/03/21 10:48:23;;;;;;;17.73;10.43;;;20.10;64.10;;;;;;6064761;23;20219;-78
2023/03/21 10:50:55;;;;;;;19.20;10.43;;;20.20;64.30;;;;;;6064381;23;20246;-77
2023/03/21 10:53:29;;;;;;;19.42;10.43;;;20.30;63.70;;;;;;6065503;23;20198;-78
2023/03/21 10:56:00;;;;;;;16.42;9.80;;;20.30;63.60;;;;;;6065989;23;20154;-77
2023/03/21 10:58:32;;;;;;;18.35;9.57;;;20.50;63.60;;;;;;6065908;23;20285;-77
2023/03/21 11:01:04;;;;;;;18.15;10.38;;;20.50;63.20;;;;;;6065594;23;20159;-76
2023/03/21 11:03:38;;;;;;;20.88;10.50;;;20.50;62.20;;;;;;6064139;23;20159;-78
2023/03/21 11:06:11;;;;;;;19.08;10.13;;;20.60;62.20;;;;;;6065681;23;20822;-76
2023/03/21 11:08:41;;;;;;;23.15;12.15;;;20.60;61.60;;;;;;6062910;23;20214;-78
2023/03/21 11:11:14;;;;;;;24.17;11.20;;;20.60;61.90;;;;;;6066490;23;20186;-77
2023/03/21 11:13:44;;;;;;;19.33;10.77;;;20.70;62.00;;;;;;6065597;23;20170;-78
2023/03/21 11:16:22;;;;;;;25.60;12.15;;;20.70;61.10;;;;;;6067132;23;20166;-77
2023/03/21 11:18:57;;;;;;;20.05;11.43;;;20.70;61.40;;;;;;6065912;23;20163;-78
2023/03/21 11:21:27;;;;;;;17.95;9.80;;;20.80;60.70;;;;;;6064207;23;20162;-75
2023/03/21 11:23:57;;;;;;;18.15;10.63;;;20.70;60.70;;;;;;6065321;23;20218;-77
2023/03/21 11:26:29;;;;;;;18.45;9.80;;;20.80;60.70;;;;;;6065741;23;20198;-77
2023/03/21 11:28:58;;;;;;;20.20;10.68;;;20.80;61.10;;;;;;6066488;23;20166;-77
2023/03/21 11:31:38;;;;;;;18.02;10.10;;;20.80;60.70;;;;;;6063834;23;20186;-77
2023/03/21 11:34:21;;;;;;;22.85;10.20;;;20.80;60.80;;;;;;6066559;23;20170;-77
2023/03/21 11:36:51;;;;;;;22.10;10.85;;;20.70;60.20;;;;;;6066225;23;20544;-77
2023/03/21 11:39:30;;;;;;;18.35;10.10;;;20.80;60.20;;;;;;6066281;23;20167;-75
2023/03/21 11:41:59;;;;;;;19.58;9.85;;;20.80;60.70;;;;;;6066354;23;20163;-77
2023/03/21 11:44:30;;;;;;;17.52;10.43;;;20.80;60.80;;;;;;6066740;23;20629;-76
2023/03/21 11:46:59;;;;;;;21.50;10.65;;;20.90;60.50;;;;;;6066214;23;20328;-76
2023/03/21 11:49:29;;;;;;;19.10;9.63;;;20.80;60.00;;;;;;6064131;23;20178;-75
2023/03/21 11:52:08;;;;;;;16.73;9.95;;;20.90;60.10;;;;;;6064907;23;20170;-76
2023/03/21 11:54:47;;;;;;;17.25;10.35;;;20.90;60.40;;;;;;6066274;23;20490;-77
2023/03/21 11:57:26;;;;;;;15.35;9.57;;;20.90;60.10;;;;;;6064709;23;20213;-76
2023/03/21 12:00:01;;;;;;;19.13;10.43;;;21.00;60.10;;;;;;6065998;23;20540;-77
2023/03/21 12:03:15;;;;;;;20.80;10.32;;;21.00;59.10;;;;;;6067366;23;20225;-77
2023/03/21 12:05:52;;;;;;;20.48;10.32;;;21.00;59.20;;;;;;6028210;23;20174;-76
2023/03/21 12:08:33;;;;;;;19.25;10.73;;;21.00;59.10;;;;;;6066895;23;20162;-76
2023/03/21 12:11:08;;;;;;;17.27;9.43;;;21.00;58.90;;;;;;6064893;23;20547;-77
2023/03/21 12:13:54;;;;;;;17.17;9.40;;;21.00;58.90;;;;;;6067781;23;20162;-77
2023/03/21 12:16:31;;;;;;;20.02;9.88;;;21.10;59.30;;;;;;6064915;23;20208;-77
2023/03/21 12:19:11;;;;;;;16.80;9.55;;;21.10;59.00;;;;;;6065555;23;20170;-76
2023/03/21 12:21:53;;;;;;;21.52;9.75;;;21.10;58.60;;;;;;6066915;23;20601;-77
2023/03/21 12:24:24;;;;;;;17.70;9.35;;;21.10;58.60;;;;;;6067177;23;20159;-77
2023/03/21 12:26:59;;;;;;;19.30;9.88;;;21.20;58.90;;;;;;6066694;23;20645;-76
2023/03/21 12:29:40;;;;;;;19.67;9.70;;;21.20;58.50;;;;;;6065194;23;20600;-76
2023/03/21 12:32:23;;;;;;;17.58;10.50;;;21.30;58.60;;;;;;6065843;23;20159;-76
2023/03/21 12:35:14;;;;;;;19.90;10.35;;;21.30;57.80;;;;;;6065123;23;20468;-77
2023/03/21 12:37:53;;;;;;;18.55;10.23;;;21.30;57.80;;;;;;6064093;23;20547;-76
2023/03/21 12:40:39;;;;;;;14.20;8.95;;;21.30;57.80;;;;;;6066428;23;20162;-75
2023/03/21 12:43:31;;;;;;;23.15;11.07;;;21.30;57.90;;;;;;6067165;23;20184;-77
2023/03/21 12:46:03;;;;;;;18.17;10.38;;;21.40;58.30;;;;;;6065099;23;20166;-76
2023/03/21 12:48:41;;;;;;;18.38;10.15;;;21.50;58.30;;;;;;6066400;23;20597;-77
2023/03/21 12:51:14;;;;;;;20.67;11.23;;;21.60;58.00;;;;;;6066280;23;20167;-77
2023/03/21 12:53:54;;;;;;;18.92;9.93;;;21.60;57.90;;;;;;6067501;23;20214;-77
2023/03/21 12:56:28;;;;;;;22.85;10.20;;;21.60;57.70;;;;;;6066121;23;20465;-76